Time;durP1;ratioP1;P1;durP2;ratioP2;P2;SDS_P1;SDS_P2;PMS_P1;PMS_P2;Temp;Humidity;BMP_temperature;BMP_pressure;BME280_temperature;BME280_humidity;BME280_pressure;Samples;Min_cycle;Max_cycle;Signal;HPM_P1;HPM_P2
2022/08/28 00:00:34;;;;;;;;;;;;;;;17.12;62.40;101889.72;5023440;28;19975;-58
2022/08/28 00:02:59;;;;;;;;;;;;;;;17.09;62.52;101890.09;5026807;28;19996;-59
2022/08/28 00:05:26;;;;;;;;;;;;;;;17.07;62.60;101886.75;5022854;28;20253;-57
2022/08/28 00:07:51;;;;;;;;;;;;;;;17.06;62.98;101893.97;5028409;28;19928;-58
2022/08/28 00:10:17;;;;;;;;;;;;;;;17.04;63.05;101891.47;5031294;28;19982;-58
2022/08/28 00:12:43;;;;;;;;;;;;;;;17.02;62.83;101890.81;5039994;28;20015;-57
2022/08/28 00:15:13;;;;;;;;;;;;;;;17.02;62.85;101887.28;5026222;28;20004;-57
2022/08/28 00:17:39;;;;;;;;;;;;;;;16.99;63.00;101893.88;5023893;28;20262;-58
2022/08/28 00:20:05;;;;;;;;;;;;;;;16.99;63.02;101893.03;5020269;28;19928;-57
2022/08/28 00:22:31;;;;;;;;;;;;;;;16.97;63.43;101887.88;5023259;28;19959;-57
2022/08/28 00:24:56;;;;;;;;;;;;;;;16.95;63.50;101889.91;5018237;28;20276;-57
2022/08/28 00:30:05;;;;;;;;;;;;;;;16.92;63.53;101890.28;5022756;28;19928;-57
2022/08/28 00:32:31;;;;;;;;;;;;;;;16.90;63.78;101888.81;5023102;28;19917;-56
2022/08/28 00:34:56;;;;;;;;;;;;;;;16.87;63.60;101889.19;5023074;28;20446;-57
2022/08/28 00:37:21;;;;;;;;;;;;;;;16.84;63.88;101889.56;5025846;28;19939;-57
2022/08/28 00:39:47;;;;;;;;;;;;;;;16.80;63.73;101886.41;5035650;28;19909;-57
2022/08/28 00:42:13;;;;;;;;;;;;;;;16.76;63.85;101887.78;5038581;28;20009;-57
2022/08/28 00:44:38;;;;;;;;;;;;;;;16.73;64.30;101893.50;5023525;28;19968;-57
2022/08/28 00:47:03;;;;;;;;;;;;;;;16.67;64.19;101887.06;5022953;28;20011;-56
2022/08/28 00:49:31;;;;;;;;;;;;;;;16.64;64.28;101891.94;5025622;28;19913;-57
2022/08/28 00:52:04;;;;;;;;;;;;;;;16.61;64.32;101895.81;5024374;28;19943;-57
2022/08/28 00:54:32;;;;;;;;;;;;;;;16.58;64.57;101887.31;5023253;28;20390;-57
2022/08/28 00:56:57;;;;;;;;;;;;;;;16.56;64.50;101897.38;5026387;28;19964;-57
2022/08/28 00:59:24;;;;;;;;;;;;;;;16.52;64.82;101890.72;5021285;28;19964;-57
2022/08/28 01:01:53;;;;;;;;;;;;;;;16.48;64.53;101892.94;5022983;28;19916;-57
2022/08/28 01:04:20;;;;;;;;;;;;;;;16.44;64.64;101894.31;5022926;28;19968;-57
2022/08/28 01:06:47;;;;;;;;;;;;;;;16.41;64.75;101900.03;5024062;28;19917;-59
2022/08/28 01:09:13;;;;;;;;;;;;;;;16.37;65.13;101902.25;5027812;28;19919;-57
2022/08/28 01:11:40;;;;;;;;;;;;;;;16.34;65.34;101901.78;5030694;28;19921;-56
2022/08/28 01:14:05;;;;;;;;;;;;;;;16.31;64.89;101894.94;5023535;28;19921;-56
2022/08/28 01:16:31;;;;;;;;;;;;;;;16.28;65.35;101900.69;5018574;28;19923;-57
2022/08/28 01:18:59;;;;;;;;;;;;;;;16.25;65.16;101903.72;5016664;28;19920;-59
2022/08/28 01:21:28;;;;;;;;;;;;;;;16.22;65.16;101905.94;5019189;28;20004;-56
2022/08/28 01:23:53;;;;;;;;;;;;;;;16.19;65.36;101906.28;5020759;28;19920;-57
2022/08/28 01:26:18;;;;;;;;;;;;;;;16.16;65.23;101902.09;5021775;28;20003;-57
2022/08/28 01:28:44;;;;;;;;;;;;;;;16.14;65.32;101901.47;5021456;28;19917;-58
2022/08/28 01:31:10;;;;;;;;;;;;;;;16.13;65.53;101898.97;5021375;28;19912;-57
2022/08/28 01:33:35;;;;;;;;;;;;;;;16.10;65.78;101895.63;5022352;28;20343;-57
2022/08/28 01:36:00;;;;;;;;;;;;;;;16.02;65.59;101895.72;5018991;28;19925;-57
2022/08/28 01:38:26;;;;;;;;;;;;;;;16.05;65.66;101905.22;5025435;28;19971;-58
2022/08/28 01:40:52;;;;;;;;;;;;;;;16.03;65.86;101908.09;5031108;28;20051;-57
2022/08/28 01:43:19;;;;;;;;;;;;;;;16.01;66.07;101903.94;5026208;28;19917;-57
2022/08/28 01:45:47;;;;;;;;;;;;;;;15.99;65.82;101908.63;5027359;28;19959;-57
2022/08/28 01:48:13;;;;;;;;;;;;;;;15.97;66.32;101910.66;5021808;28;19917;-55
2022/08/28 01:50:39;;;;;;;;;;;;;;;15.93;66.09;101915.56;5016030;28;19920;-56
2022/08/28 01:53:05;;;;;;;;;;;;;;;15.91;66.27;101914.06;5018937;28;19921;-57
2022/08/28 01:55:31;;;;;;;;;;;;;;;15.87;66.50;101913.56;5021836;28;20004;-57
2022/08/28 01:57:56;;;;;;;;;;;;;;;15.85;66.06;101918.28;5021298;28;19921;-57
2022/08/28 02:00:26;;;;;;;;;;;;;;;15.83;66.11;101919.47;5027005;28;19925;-56
2022/08/28 02:02:51;;;;;;;;;;;;;;;15.81;66.34;101911.59;5015467;28;20023;-57
2022/08/28 02:05:18;;;;;;;;;;;;;;;15.79;66.51;101916.31;5024999;28;20436;-57
2022/08/28 02:07:43;;;;;;;;;;;;;;;15.77;66.60;101916.50;5021369;28;19913;-57
2022/08/28 02:10:10;;;;;;;;;;;;;;;15.76;66.44;101917.50;5021907;28;20471;-57
2022/08/28 02:12:36;;;;;;;;;;;;;;;15.74;66.89;101919.53;5030948;28;19960;-57
2022/08/28 02:15:01;;;;;;;;;;;;;;;15.75;66.75;101929.22;5020453;28;19928;-57
2022/08/28 02:17:26;;;;;;;;;;;;;;;15.75;66.52;101928.41;5018723;28;19917;-57
2022/08/28 02:19:51;;;;;;;;;;;;;;;15.74;66.65;101934.78;5023106;28;20495;-57
2022/08/28 02:22:16;;;;;;;;;;;;;;;15.74;66.73;101934.78;5017771;28;19960;-57
2022/08/28 02:24:42;;;;;;;;;;;;;;;15.73;66.63;101939.28;5022972;28;19999;-57
2022/08/28 02:27:07;;;;;;;;;;;;;;;15.71;67.07;101932.44;5017060;28;19925;-57
2022/08/28 02:29:33;;;;;;;;;;;;;;;15.70;67.09;101933.47;5020800;28;19928;-56
2022/08/28 02:31:58;;;;;;;;;;;;;;;15.68;67.05;101928.28;5023104;28;19913;-57
2022/08/28 02:34:23;;;;;;;;;;;;;;;15.68;67.14;101924.78;5023966;28;19921;-57
2022/08/28 02:36:48;;;;;;;;;;;;;;;15.68;67.05;101930.13;5019134;28;19927;-56
2022/08/28 02:39:14;;;;;;;;;;;;;;;15.68;67.28;101936.31;5027644;28;19959;-57
2022/08/28 02:41:39;;;;;;;;;;;;;;;15.67;67.18;101942.69;5035776;28;19913;-57
2022/08/28 02:44:04;;;;;;;;;;;;;;;15.66;67.44;101943.69;5029215;28;19921;-57
2022/08/28 02:46:29;;;;;;;;;;;;;;;15.65;67.23;101930.50;5019409;28;20015;-57
2022/08/28 02:48:55;;;;;;;;;;;;;;;15.64;67.32;101940.38;5020074;28;20542;-57
2022/08/28 02:51:20;;;;;;;;;;;;;;;15.61;67.27;101934.50;5016235;28;20511;-56
2022/08/28 02:53:45;;;;;;;;;;;;;;;15.58;67.41;101932.16;5024314;28;19919;-57
2022/08/28 02:56:11;;;;;;;;;;;;;;;15.56;67.82;101931.50;5021280;28;19912;-56
2022/08/28 02:58:36;;;;;;;;;;;;;;;15.53;67.55;101931.84;5019221;28;19922;-57
2022/08/28 03:01:04;;;;;;;;;;;;;;;15.52;67.71;101930.19;5023267;28;20030;-57
2022/08/28 03:03:30;;;;;;;;;;;;;;;15.49;67.68;101928.69;5017597;28;20548;-57
2022/08/28 03:05:55;;;;;;;;;;;;;;;15.45;67.70;101930.91;5016903;28;20431;-57
2022/08/28 03:08:22;;;;;;;;;;;;;;;15.42;67.67;101939.28;5021600;28;19912;-57
2022/08/28 03:10:47;;;;;;;;;;;;;;;15.40;67.88;101932.44;5029739;28;19947;-56
2022/08/28 03:13:12;;;;;;;;;;;;;;;15.37;67.44;101938.16;5034816;28;19963;-57
2022/08/28 03:15:37;;;;;;;;;;;;;;;15.35;67.81;101937.50;5023279;28;19921;-57
2022/08/28 03:18:03;;;;;;;;;;;;;;;15.30;68.05;101935.31;5018519;28;19917;-56
2022/08/28 03:20:28;;;;;;;;;;;;;;;15.26;68.02;101938.50;5021643;28;19919;-57
2022/08/28 03:25:37;;;;;;;;;;;;;;;15.18;67.98;101947.41;5021149;28;20028;-58
2022/08/28 03:28:02;;;;;;;;;;;;;;;15.15;68.09;101945.94;5020948;28;20429;-57
2022/08/28 03:30:27;;;;;;;;;;;;;;;15.12;68.37;101946.28;5028072;28;20449;-56
2022/08/28 03:32:52;;;;;;;;;;;;;;;15.10;68.13;101948.28;5025759;28;19913;-57
2022/08/28 03:35:19;;;;;;;;;;;;;;;15.09;68.20;101945.78;5024780;28;19984;-58
2022/08/28 03:37:44;;;;;;;;;;;;;;;15.07;68.54;101950.47;5020774;28;19940;-57
2022/08/28 03:40:10;;;;;;;;;;;;;;;15.06;68.39;101952.31;5025963;28;20518;-56
2022/08/28 03:42:35;;;;;;;;;;;;;;;15.04;68.50;101954.34;5040031;28;19955;-57
2022/08/28 03:45:01;;;;;;;;;;;;;;;15.01;68.58;101951.97;5024282;28;20965;-57
2022/08/28 03:47:29;;;;;;;;;;;;;;;14.97;68.29;101953.34;5021417;28;19932;-57
2022/08/28 03:49:55;;;;;;;;;;;;;;;14.96;68.34;101959.69;5022127;28;19957;-56
2022/08/28 03:52:20;;;;;;;;;;;;;;;14.96;68.62;101966.88;5020369;28;19927;-57
2022/08/28 03:54:46;;;;;;;;;;;;;;;14.92;68.79;101963.72;5021903;28;19991;-58
2022/08/28 03:57:15;;;;;;;;;;;;;;;14.90;68.75;101960.38;5023076;28;19915;-56
2022/08/28 03:59:40;;;;;;;;;;;;;;;14.88;68.71;101965.06;5031074;28;20262;-57
2022/08/28 04:02:05;;;;;;;;;;;;;;;14.86;68.62;101961.75;5020705;28;20399;-56
2022/08/28 04:04:30;;;;;;;;;;;;;;;14.82;68.58;101960.41;5023664;28;19967;-56
2022/08/28 04:06:56;;;;;;;;;;;;;;;14.81;68.85;101964.94;5022468;28;20344;-56
2022/08/28 04:09:21;;;;;;;;;;;;;;;14.78;68.94;101970.63;5023410;28;19951;-57
2022/08/28 04:11:46;;;;;;;;;;;;;;;14.75;68.93;101970.13;5026670;28;20013;-57
2022/08/28 04:14:11;;;;;;;;;;;;;;;14.72;69.09;101962.41;5027671;28;19982;-56
2022/08/28 04:16:37;;;;;;;;;;;;;;;14.70;69.09;101967.09;5040024;28;19908;-56
2022/08/28 04:19:02;;;;;;;;;;;;;;;14.68;69.54;101964.59;5025482;28;19944;-57
2022/08/28 04:21:27;;;;;;;;;;;;;;;14.66;69.22;101961.28;5022527;28;19913;-56
2022/08/28 04:23:53;;;;;;;;;;;;;;;14.66;69.53;101965.78;5023499;28;19932;-56
2022/08/28 04:26:20;;;;;;;;;;;;;;;14.64;69.55;101957.09;5019760;28;19917;-57
2022/08/28 04:28:46;;;;;;;;;;;;;;;14.62;69.62;101964.47;5027226;28;19917;-57
2022/08/28 04:31:11;;;;;;;;;;;;;;;14.60;69.68;101964.63;5023851;28;20316;-56
2022/08/28 04:33:37;;;;;;;;;;;;;;;14.58;69.86;101966.63;5025696;28;19920;-55
2022/08/28 04:36:07;;;;;;;;;;;;;;;14.56;70.18;101971.31;5025509;28;19921;-57
2022/08/28 04:38:32;;;;;;;;;;;;;;;14.55;69.75;101977.69;5023873;28;19921;-56
2022/08/28 04:40:58;;;;;;;;;;;;;;;14.54;70.20;101976.84;5029303;28;19920;-56
2022/08/28 04:43:23;;;;;;;;;;;;;;;14.53;70.23;101980.50;5023762;28;20349;-57
2022/08/28 04:45:48;;;;;;;;;;;;;;;14.52;70.04;101986.88;5021620;28;19918;-56
2022/08/28 04:48:13;;;;;;;;;;;;;;;14.51;70.31;101984.38;5022370;28;19917;-57
2022/08/28 04:50:43;;;;;;;;;;;;;;;14.49;70.18;101979.19;5021646;28;19920;-56
2022/08/28 04:53:09;;;;;;;;;;;;;;;14.48;70.73;101988.22;5020851;28;19921;-56
2022/08/28 04:55:39;;;;;;;;;;;;;;;14.49;70.57;101991.72;5025137;28;19945;-57
2022/08/28 04:58:04;;;;;;;;;;;;;;;14.47;70.49;101983.03;5032080;28;19916;-56
2022/08/28 05:00:29;;;;;;;;;;;;;;;14.47;70.82;101988.38;5026367;28;19921;-57
2022/08/28 05:02:54;;;;;;;;;;;;;;;14.47;70.58;101993.72;5027981;28;19999;-56
2022/08/28 05:05:19;;;;;;;;;;;;;;;14.47;70.97;101991.06;5020217;28;19924;-56
2022/08/28 05:07:45;;;;;;;;;;;;;;;14.48;71.06;101990.06;5035800;28;19923;-57
2022/08/28 05:10:10;;;;;;;;;;;;;;;14.48;71.08;101996.22;5041927;28;19913;-57
2022/08/28 05:12:35;;;;;;;;;;;;;;;14.48;71.22;101993.56;5046675;28;19923;-57
2022/08/28 05:15:00;;;;;;;;;;;;;;;14.49;71.21;101991.72;5043474;28;19963;-57
2022/08/28 05:17:26;;;;;;;;;;;;;;;14.49;70.76;101997.91;5025958;28;19976;-57
2022/08/28 05:19:53;;;;;;;;;;;;;;;14.51;71.02;102005.75;5024460;28;20002;-57
2022/08/28 05:22:18;;;;;;;;;;;;;;;14.52;71.54;102010.09;5044438;28;20066;-57
2022/08/28 05:24:43;;;;;;;;;;;;;;;14.53;71.64;102017.09;5047437;28;19987;-56
2022/08/28 05:27:08;;;;;;;;;;;;;;;14.53;71.39;102009.91;5039682;28;19975;-56
2022/08/28 05:29:34;;;;;;;;;;;;;;;14.54;71.72;102014.25;5041653;28;19970;-56
2022/08/28 05:31:59;;;;;;;;;;;;;;;14.58;72.01;102009.41;5031776;28;20004;-56
2022/08/28 05:34:24;;;;;;;;;;;;;;;14.61;72.04;102013.59;5025951;28;19924;-57
2022/08/28 05:36:49;;;;;;;;;;;;;;;14.66;72.61;102022.75;5034335;28;20011;-56
2022/08/28 05:39:15;;;;;;;;;;;;;;;14.72;72.76;102023.91;5044821;28;19913;-57
2022/08/28 05:41:42;;;;;;;;;;;;;;;14.78;72.75;102028.63;5028851;28;19918;-57
2022/08/28 05:44:08;;;;;;;;;;;;;;;14.84;72.90;102025.25;5043641;28;19983;-57
2022/08/28 05:46:36;;;;;;;;;;;;;;;14.91;72.96;102025.41;5023713;28;20127;-57
2022/08/28 05:49:01;;;;;;;;;;;;;;;14.96;72.99;102018.53;5044741;28;19916;-56
2022/08/28 05:51:27;;;;;;;;;;;;;;;15.02;73.29;102025.03;5032250;28;19917;-56
2022/08/28 05:53:52;;;;;;;;;;;;;;;15.06;73.16;102023.72;5022570;28;19920;-54
2022/08/28 05:56:22;;;;;;;;;;;;;;;15.12;73.45;102023.03;5024456;28;19932;-57
2022/08/28 05:58:47;;;;;;;;;;;;;;;15.18;73.54;102025.03;5027405;28;19956;-57
2022/08/28 06:01:14;;;;;;;;;;;;;;;15.25;73.18;102019.81;5037641;28;19940;-57
2022/08/28 06:03:41;;;;;;;;;;;;;;;15.30;73.35;102017.44;5034098;28;19920;-56
2022/08/28 06:06:07;;;;;;;;;;;;;;;15.36;73.48;102031.00;5027155;28;20475;-56
2022/08/28 06:08:32;;;;;;;;;;;;;;;15.41;73.14;102033.97;5026559;28;20651;-57
2022/08/28 06:10:58;;;;;;;;;;;;;;;15.46;73.18;102036.13;5019364;28;19936;-56
2022/08/28 06:13:23;;;;;;;;;;;;;;;15.52;73.13;102037.28;5032232;28;19917;-56
2022/08/28 06:15:48;;;;;;;;;;;;;;;15.57;73.31;102038.41;5041801;28;20503;-57
2022/08/28 06:18:15;;;;;;;;;;;;;;;15.65;73.37;102038.44;5040221;28;19956;-56
2022/08/28 06:20:43;;;;;;;;;;;;;;;15.74;73.46;102047.25;5028767;28;19909;-56
2022/08/28 06:23:09;;;;;;;;;;;;;;;15.84;73.30;102042.50;5041954;28;19909;-56
2022/08/28 06:25:38;;;;;;;;;;;;;;;15.93;73.42;102049.50;5029116;28;20814;-57
2022/08/28 06:28:03;;;;;;;;;;;;;;;16.04;73.53;102045.59;5032661;28;19963;-56
2022/08/28 06:30:28;;;;;;;;;;;;;;;16.13;73.35;102044.50;5039206;28;19909;-55
2022/08/28 06:32:54;;;;;;;;;;;;;;;16.23;72.95;102046.97;5033221;28;20296;-56
2022/08/28 06:35:19;;;;;;;;;;;;;;;16.32;72.99;102041.38;5036477;28;19909;-56
2022/08/28 06:37:44;;;;;;;;;;;;;;;16.45;72.82;102045.28;5047608;28;20019;-57
2022/08/28 06:40:09;;;;;;;;;;;;;;;16.55;72.63;102051.25;5042000;28;19913;-55
2022/08/28 06:42:35;;;;;;;;;;;;;;;16.63;72.29;102045.81;5028360;28;19966;-58
2022/08/28 06:45:00;;;;;;;;;;;;;;;16.71;72.06;102045.78;5036570;28;19913;-58
2022/08/28 06:47:25;;;;;;;;;;;;;;;16.79;71.99;102052.94;5031550;28;20653;-58
2022/08/28 06:49:51;;;;;;;;;;;;;;;16.89;71.92;102048.97;5033245;28;19952;-58
2022/08/28 06:52:16;;;;;;;;;;;;;;;16.97;71.26;102059.63;5037626;28;19908;-58
2022/08/28 06:54:41;;;;;;;;;;;;;;;17.03;71.15;102058.88;5044863;28;19916;-58
2022/08/28 06:57:06;;;;;;;;;;;;;;;17.08;71.02;102052.97;5031187;28;19967;-58
2022/08/28 06:59:31;;;;;;;;;;;;;;;17.12;70.51;102061.50;5026999;28;19913;-58
2022/08/28 07:01:57;;;;;;;;;;;;;;;17.15;70.54;102056.59;5029236;28;19909;-58
2022/08/28 07:04:22;;;;;;;;;;;;;;;17.17;70.46;102059.09;5037445;28;19909;-58
2022/08/28 07:06:49;;;;;;;;;;;;;;;17.17;70.12;102061.78;5041326;28;19913;-58
2022/08/28 07:09:14;;;;;;;;;;;;;;;17.18;70.03;102058.06;5043716;28;19927;-58
2022/08/28 07:11:39;;;;;;;;;;;;;;;17.18;69.79;102060.75;5032286;28;20000;-58
2022/08/28 07:14:05;;;;;;;;;;;;;;;17.19;69.80;102059.75;5028145;28;19928;-58
2022/08/28 07:16:32;;;;;;;;;;;;;;;17.20;69.56;102056.88;5035931;28;19912;-58
2022/08/28 07:19:01;;;;;;;;;;;;;;;17.22;69.88;102054.81;5035889;28;20380;-58
2022/08/28 07:21:26;;;;;;;;;;;;;;;17.25;69.58;102054.47;5045093;28;19935;-58
2022/08/28 07:23:52;;;;;;;;;;;;;;;17.29;69.38;102057.59;5035998;28;20372;-58
2022/08/28 07:26:19;;;;;;;;;;;;;;;17.31;69.33;102060.94;5035967;28;19917;-58
2022/08/28 07:28:45;;;;;;;;;;;;;;;17.34;68.75;102058.72;5029654;28;19918;-58
2022/08/28 07:31:12;;;;;;;;;;;;;;;17.36;68.47;102057.72;5045861;28;19916;-58
2022/08/28 07:33:38;;;;;;;;;;;;;;;17.38;68.26;102063.72;5042422;28;19968;-58
2022/08/28 07:36:05;;;;;;;;;;;;;;;17.42;68.14;102065.03;5047724;28;19999;-58
2022/08/28 07:38:31;;;;;;;;;;;;;;;17.47;68.24;102063.44;5043528;28;19951;-58
2022/08/28 07:40:56;;;;;;;;;;;;;;;17.54;67.90;102064.34;5033248;28;19948;-58
2022/08/28 07:46:06;;;;;;;;;;;;;;;17.64;67.22;102072.16;5044065;28;19966;-58
2022/08/28 07:48:32;;;;;;;;;;;;;;;17.70;67.00;102074.13;5032569;28;19917;-58
2022/08/28 07:50:57;;;;;;;;;;;;;;;17.75;66.73;102077.06;5031649;28;19920;-58
2022/08/28 07:53:22;;;;;;;;;;;;;;;17.81;66.17;102076.31;5031245;28;19909;-58
2022/08/28 07:55:49;;;;;;;;;;;;;;;17.85;65.61;102082.13;5046702;28;19915;-58
2022/08/28 07:58:15;;;;;;;;;;;;;;;17.91;65.79;102087.59;5035773;28;19916;-58
2022/08/28 08:00:40;;;;;;;;;;;;;;;17.96;65.15;102084.34;5027153;28;20003;-58
2022/08/28 08:03:05;;;;;;;;;;;;;;;18.01;64.80;102086.47;5028055;28;19909;-58
2022/08/28 08:05:31;;;;;;;;;;;;;;;18.05;64.48;102079.69;5043089;28;19948;-58
2022/08/28 08:07:56;;;;;;;;;;;;;;;18.11;64.67;102087.84;5041501;28;19995;-58
2022/08/28 08:10:21;;;;;;;;;;;;;;;18.21;64.33;102090.19;5043847;28;19908;-58
2022/08/28 08:12:46;;;;;;;;;;;;;;;18.30;64.13;102096.31;5031662;28;19908;-58
2022/08/28 08:15:12;;;;;;;;;;;;;;;18.35;63.56;102093.88;5030356;28;19913;-58
2022/08/28 08:17:38;;;;;;;;;;;;;;;18.40;63.18;102107.59;5035287;28;20577;-58
2022/08/28 08:20:03;;;;;;;;;;;;;;;18.44;63.07;102103.47;5041261;28;19913;-58
2022/08/28 08:22:28;;;;;;;;;;;;;;;18.50;62.88;102102.72;5042909;28;20595;-58
2022/08/28 08:24:54;;;;;;;;;;;;;;;18.50;62.58;102091.94;5043511;28;20323;-58
2022/08/28 08:27:19;;;;;;;;;;;;;;;18.59;61.99;102096.19;5039767;28;19916;-58
2022/08/28 08:29:45;;;;;;;;;;;;;;;18.63;61.51;102094.81;5034001;28;20430;-58
2022/08/28 08:32:10;;;;;;;;;;;;;;;18.66;61.07;102107.03;5031846;28;19909;-58
2022/08/28 08:34:37;;;;;;;;;;;;;;;18.71;60.54;102102.75;5042743;28;19912;-58
2022/08/28 08:37:04;;;;;;;;;;;;;;;18.78;60.73;102095.56;5038275;28;20384;-59
2022/08/28 08:39:29;;;;;;;;;;;;;;;18.83;60.71;102103.91;5037086;28;19940;-58
2022/08/28 08:41:57;;;;;;;;;;;;;;;18.86;60.88;102094.59;5031407;28;19916;-58
2022/08/28 08:44:31;;;;;;;;;;;;;;;18.87;60.31;102101.66;5028903;28;19913;-58
2022/08/28 08:47:15;;;;;;;;;;;;;;;18.89;59.60;102102.28;5038521;28;19913;-58
2022/08/28 08:49:46;;;;;;;;;;;;;;;18.97;59.82;102106.69;5039683;28;19975;-58
2022/08/28 08:52:14;;;;;;;;;;;;;;;18.98;59.15;102097.59;5046742;28;19908;-59
2022/08/28 08:54:43;;;;;;;;;;;;;;;19.00;58.52;102096.38;5023841;28;19959;-58
2022/08/28 08:57:11;;;;;;;;;;;;;;;19.02;58.64;102099.69;5033594;28;19915;-58
2022/08/28 08:59:37;;;;;;;;;;;;;;;19.04;57.99;102100.31;5045480;28;19913;-58
2022/08/28 09:02:10;;;;;;;;;;;;;;;19.11;58.14;102097.69;5028324;28;19913;-58
2022/08/28 09:04:58;;;;;;;;;;;;;;;19.15;58.05;102097.09;5033446;28;19925;-58
2022/08/28 09:07:26;;;;;;;;;;;;;;;19.23;57.51;102098.81;5034275;28;19915;-58
2022/08/28 09:09:52;;;;;;;;;;;;;;;19.31;57.46;102093.25;5042618;28;19913;-58
2022/08/28 09:12:22;;;;;;;;;;;;;;;19.41;57.54;102096.44;5043884;28;19909;-58
2022/08/28 09:15:04;;;;;;;;;;;;;;;19.44;57.44;102101.44;5033327;28;20337;-58
2022/08/28 09:17:46;;;;;;;;;;;;;;;19.48;56.98;102091.94;5045259;28;19947;-58
2022/08/28 09:20:13;;;;;;;;;;;;;;;19.59;57.75;102093.25;5039669;28;19916;-58
2022/08/28 09:22:43;;;;;;;;;;;;;;;19.72;57.68;102103.28;5036425;28;19931;-58
2022/08/28 09:25:09;;;;;;;;;;;;;;;19.73;57.50;102102.25;5030228;28;19925;-58
2022/08/28 09:27:42;;;;;;;;;;;;;;;19.72;56.97;102098.72;5026645;28;20008;-58
2022/08/28 09:30:09;;;;;;;;;;;;;;;19.67;56.61;102106.59;5037905;28;19909;-58
2022/08/28 09:32:40;;;;;;;;;;;;;;;19.65;56.81;102103.22;5044932;28;20372;-59
2022/08/28 09:35:14;;;;;;;;;;;;;;;19.64;56.83;102101.56;5022466;28;20144;-58
2022/08/28 09:37:40;;;;;;;;;;;;;;;19.64;57.00;102103.44;5032257;28;19919;-58
2022/08/28 09:40:12;;;;;;;;;;;;;;;19.65;56.75;102105.09;5035375;28;19917;-59
2022/08/28 09:43:38;;;;;;;;;;;;;;;19.66;56.69;102101.34;5030801;28;19913;-58
2022/08/28 09:45:31;;;;;;;;;;;;;;;19.65;56.62;102102.38;5016781;28;20308;-58
2022/08/28 09:47:57;;;;;;;;;;;;;;;19.63;56.81;102099.91;5035607;28;19909;-58
2022/08/28 09:50:24;;;;;;;;;;;;;;;19.63;56.88;102101.75;5036311;28;19920;-58
2022/08/28 09:52:50;;;;;;;;;;;;;;;19.61;56.77;102103.81;5033550;28;19923;-59
2022/08/28 09:55:25;;;;;;;;;;;;;;;19.62;56.90;102105.50;5028467;28;19917;-58
2022/08/28 09:57:51;;;;;;;;;;;;;;;19.69;56.58;102107.22;5028314;28;19909;-58
2022/08/28 10:00:16;;;;;;;;;;;;;;;19.78;56.88;102106.00;5033682;28;19982;-58
2022/08/28 10:02:41;;;;;;;;;;;;;;;19.86;56.73;102101.47;5039020;28;19927;-58
2022/08/28 10:05:15;;;;;;;;;;;;;;;20.06;56.98;102100.50;5041258;28;19921;-58
2022/08/28 10:07:40;;;;;;;;;;;;;;;20.32;56.21;102090.84;5029092;28;19913;-58
2022/08/28 10:10:05;;;;;;;;;;;;;;;20.59;55.69;102103.38;5032902;28;20380;-58
2022/08/28 10:12:38;;;;;;;;;;;;;;;20.84;54.28;102097.34;5039966;28;19925;-58
2022/08/28 10:15:22;;;;;;;;;;;;;;;21.02;53.78;102092.13;5039419;28;19913;-58
2022/08/28 10:17:56;;;;;;;;;;;;;;;21.13;53.08;102096.94;5030445;28;19909;-59
2022/08/28 10:20:38;;;;;;;;;;;;;;;21.20;52.26;102102.31;5032479;28;19913;-58
2022/08/28 10:23:09;;;;;;;;;;;;;;;21.33;51.54;102105.84;5027236;28;20404;-58
2022/08/28 10:25:50;;;;;;;;;;;;;;;21.49;51.26;102101.03;5028708;28;19940;-59
2022/08/28 10:28:22;;;;;;;;;;;;;;;21.69;51.04;102093.72;5037245;28;19917;-58
2022/08/28 10:30:54;;;;;;;;;;;;;;;21.89;51.09;102091.72;5026929;28;20435;-58
2022/08/28 10:33:28;;;;;;;;;;;;;;;22.03;50.51;102097.09;5032653;28;20039;-59
2022/08/28 10:36:17;;;;;;;;;;;;;;;22.04;50.21;102093.38;5048323;28;19916;-59
2022/08/28 10:38:45;;;;;;;;;;;;;;;22.00;49.80;102087.53;5040933;28;19920;-58
2022/08/28 10:41:16;;;;;;;;;;;;;;;21.95;49.75;102096.28;5033966;28;19963;-59
2022/08/28 10:43:46;;;;;;;;;;;;;;;21.93;49.23;102092.97;5027122;28;20347;-59
2022/08/28 10:46:15;;;;;;;;;;;;;;;22.09;49.35;102090.84;5039826;28;20498;-59
2022/08/28 10:48:45;;;;;;;;;;;;;;;22.17;48.49;102094.13;5036979;28;20372;-58
2022/08/28 10:51:15;;;;;;;;;;;;;;;22.16;48.17;102091.63;5024270;28;19920;-57
2022/08/28 10:53:47;;;;;;;;;;;;;;;22.30;47.81;102087.81;5022609;28;20000;-58
2022/08/28 10:56:12;;;;;;;;;;;;;;;22.53;47.71;102098.06;5019030;28;20438;-59
2022/08/28 10:58:39;;;;;;;;;;;;;;;22.76;47.77;102095.59;5025397;28;19964;-59
2022/08/28 11:01:07;;;;;;;;;;;;;;;22.97;47.72;102088.16;5019464;28;19960;-59
2022/08/28 11:03:39;;;;;;;;;;;;;;;23.02;47.61;102099.97;5015287;28;19917;-59
2022/08/28 11:06:13;;;;;;;;;;;;;;;22.97;46.57;102091.69;5022914;28;20765;-58
2022/08/28 11:08:39;;;;;;;;;;;;;;;22.84;46.61;102097.22;5018799;28;19944;-59
2022/08/28 11:11:05;;;;;;;;;;;;;;;22.76;46.30;102090.16;5024710;28;20377;-59
2022/08/28 11:13:36;;;;;;;;;;;;;;;22.73;46.42;102097.91;5037153;28;19913;-59
2022/08/28 11:16:09;;;;;;;;;;;;;;;22.82;46.23;102091.19;5031533;28;19959;-59
2022/08/28 11:18:42;;;;;;;;;;;;;;;23.02;46.22;102083.72;5030407;28;19916;-59
2022/08/28 11:21:12;;;;;;;;;;;;;;;23.20;45.58;102092.94;5021275;28;19918;-59
2022/08/28 11:23:51;;;;;;;;;;;;;;;23.28;45.00;102095.38;5027865;28;19913;-59
2022/08/28 11:26:23;;;;;;;;;;;;;;;23.36;45.32;102092.34;5025899;28;19927;-59
2022/08/28 11:28:48;;;;;;;;;;;;;;;23.48;44.51;102088.69;5022128;28;19920;-59
2022/08/28 11:31:13;;;;;;;;;;;;;;;23.57;44.19;102093.81;5020516;28;20554;-59
2022/08/28 11:33:40;;;;;;;;;;;;;;;23.64;43.61;102097.28;5026620;28;19923;-59
2022/08/28 11:36:31;;;;;;;;;;;;;;;23.68;43.07;102096.59;5023203;28;20016;-58
2022/08/28 11:39:02;;;;;;;;;;;;;;;23.75;43.74;102097.38;5023638;28;19921;-59
2022/08/28 11:41:30;;;;;;;;;;;;;;;23.86;43.51;102103.06;5016850;28;19971;-58
2022/08/28 11:44:07;;;;;;;;;;;;;;;23.91;42.90;102095.06;5030448;28;19913;-59
2022/08/28 11:46:34;;;;;;;;;;;;;;;23.86;43.24;102095.75;5028776;28;20349;-59
2022/08/28 11:49:01;;;;;;;;;;;;;;;23.80;42.94;102099.41;5045095;28;20446;-59
2022/08/28 11:51:45;;;;;;;;;;;;;;;23.74;43.04;102100.31;5037366;28;19922;-59
2022/08/28 11:54:10;;;;;;;;;;;;;;;23.64;43.12;102102.72;5044264;28;19958;-59
2022/08/28 11:56:54;;;;;;;;;;;;;;;23.61;42.55;102089.59;5043322;28;19917;-59
2022/08/28 11:59:31;;;;;;;;;;;;;;;23.60;42.41;102086.06;5028759;28;19947;-59
2022/08/28 12:02:16;;;;;;;;;;;;;;;23.67;42.52;102088.69;5034151;28;19917;-59
2022/08/28 12:04:43;;;;;;;;;;;;;;;23.74;42.53;102094.88;5026994;28;19920;-59
2022/08/28 12:07:11;;;;;;;;;;;;;;;23.85;42.70;102093.28;5031095;28;19917;-59
2022/08/28 12:09:44;;;;;;;;;;;;;;;23.91;42.51;102089.66;5045166;28;20055;-59
2022/08/28 12:12:21;;;;;;;;;;;;;;;23.86;42.22;102094.94;5030718;28;20403;-59
2022/08/28 12:14:46;;;;;;;;;;;;;;;23.77;42.16;102099.84;5039219;28;19913;-59
2022/08/28 12:17:20;;;;;;;;;;;;;;;23.67;41.95;102091.41;5029666;28;19951;-59
2022/08/28 12:19:46;;;;;;;;;;;;;;;23.60;42.09;102096.91;5023964;28;19939;-59
2022/08/28 12:22:13;;;;;;;;;;;;;;;23.60;41.54;102099.63;5021939;28;20365;-59
2022/08/28 12:24:55;;;;;;;;;;;;;;;23.68;41.65;102085.75;5025268;28;19928;-59
2022/08/28 12:27:22;;;;;;;;;;;;;;;23.78;42.09;102080.63;5028893;28;19940;-59
2022/08/28 12:29:51;;;;;;;;;;;;;;;23.88;41.38;102084.69;5031066;28;20281;-59
2022/08/28 12:32:26;;;;;;;;;;;;;;;23.92;41.38;102075.03;5029916;28;19951;-59
2022/08/28 12:34:51;;;;;;;;;;;;;;;24.01;41.70;102079.91;5025433;28;19920;-59
2022/08/28 12:37:23;;;;;;;;;;;;;;;24.04;41.62;102082.16;5024245;28;19913;-59
2022/08/28 12:39:49;;;;;;;;;;;;;;;23.95;41.12;102088.94;5031840;28;19917;-58
2022/08/28 12:42:17;;;;;;;;;;;;;;;23.83;41.40;102081.81;5024545;28;20511;-59
2022/08/28 12:44:43;;;;;;;;;;;;;;;23.77;41.46;102089.00;5027858;28;19909;-59